sensor_id;sensor_type;location;lat;lon;timestamp;pressure;altitude;pressure_sealevel;temperature;humidity
60642;BME280;46837;52.446;-1.930;2023-01-26T00:00:09;101689.92;;;4.13;83.36
60642;BME280;46837;52.446;-1.930;2023-01-26T00:01:10;101687.20;;;4.12;83.31
60642;BME280;46837;52.446;-1.930;2023-01-26T00:02:09;101685.90;;;4.12;83.39
60642;BME280;46837;52.446;-1.930;2023-01-26T00:03:09;101684.64;;;4.12;83.36
60642;BME280;46837;52.446;-1.930;2023-01-26T00:04:09;101686.51;;;4.12;83.35
60642;BME280;46837;52.446;-1.930;2023-01-26T00:05:09;101689.35;;;4.13;83.41
60642;BME280;46837;52.446;-1.930;2023-01-26T00:06:10;101688.29;;;4.11;83.42
60642;BME280;46837;52.446;-1.930;2023-01-26T00:07:09;101689.18;;;4.09;83.53
60642;BME280;46837;52.446;-1.930;2023-01-26T00:08:09;101691.09;;;4.11;83.54
60642;BME280;46837;52.446;-1.930;2023-01-26T00:09:12;101686.87;;;4.11;83.48
60642;BME280;46837;52.446;-1.930;2023-01-26T00:10:09;101692.22;;;4.10;83.50
60642;BME280;46837;52.446;-1.930;2023-01-26T00:11:09;101687.58;;;4.08;83.60
60642;BME280;46837;52.446;-1.930;2023-01-26T00:12:09;101689.57;;;4.08;83.59
60642;BME280;46837;52.446;-1.930;2023-01-26T00:13:09;101687.06;;;4.07;83.65
60642;BME280;46837;52.446;-1.930;2023-01-26T00:14:09;101686.82;;;4.09;83.67
60642;BME280;46837;52.446;-1.930;2023-01-26T00:15:09;101684.98;;;4.06;83.56
60642;BME280;46837;52.446;-1.930;2023-01-26T00:16:09;101681.08;;;4.05;83.72
60642;BME280;46837;52.446;-1.930;2023-01-26T00:17:09;101683.51;;;4.03;83.72
60642;BME280;46837;52.446;-1.930;2023-01-26T00:18:09;101685.54;;;4.04;83.75
60642;BME280;46837;52.446;-1.930;2023-01-26T00:19:09;101685.17;;;4.02;83.62
60642;BME280;46837;52.446;-1.930;2023-01-26T00:20:09;101686.61;;;3.99;83.85
60642;BME280;46837;52.446;-1.930;2023-01-26T00:22:09;101682.54;;;3.97;84.10
60642;BME280;46837;52.446;-1.930;2023-01-26T00:23:09;101682.78;;;3.95;84.14
60642;BME280;46837;52.446;-1.930;2023-01-26T00:24:09;101680.88;;;3.96;84.18
60642;BME280;46837;52.446;-1.930;2023-01-26T00:25:09;101680.08;;;3.98;84.17
60642;BME280;46837;52.446;-1.930;2023-01-26T00:26:09;101680.52;;;3.96;84.13
60642;BME280;46837;52.446;-1.930;2023-01-26T00:27:09;101679.50;;;3.96;84.17
60642;BME280;46837;52.446;-1.930;2023-01-26T00:28:09;101677.19;;;3.95;84.20
60642;BME280;46837;52.446;-1.930;2023-01-26T00:29:09;101676.17;;;3.95;84.31
60642;BME280;46837;52.446;-1.930;2023-01-26T00:30:09;101676.07;;;3.92;84.34
60642;BME280;46837;52.446;-1.930;2023-01-26T00:32:09;101678.19;;;3.93;84.39
60642;BME280;46837;52.446;-1.930;2023-01-26T00:33:09;101676.56;;;3.93;84.56
60642;BME280;46837;52.446;-1.930;2023-01-26T00:34:09;101677.50;;;3.92;84.56
60642;BME280;46837;52.446;-1.930;2023-01-26T00:35:09;101678.83;;;3.92;84.58
60642;BME280;46837;52.446;-1.930;2023-01-26T00:36:09;101679.28;;;3.92;84.67
60642;BME280;46837;52.446;-1.930;2023-01-26T00:37:09;101679.00;;;3.92;84.70
60642;BME280;46837;52.446;-1.930;2023-01-26T00:38:09;101676.64;;;3.92;84.69
60642;BME280;46837;52.446;-1.930;2023-01-26T00:39:09;101677.42;;;3.93;84.72
60642;BME280;46837;52.446;-1.930;2023-01-26T00:40:09;101675.67;;;3.92;84.73
60642;BME280;46837;52.446;-1.930;2023-01-26T00:41:09;101676.46;;;3.88;84.89
60642;BME280;46837;52.446;-1.930;2023-01-26T00:42:13;101679.84;;;3.89;85.05
60642;BME280;46837;52.446;-1.930;2023-01-26T00:43:09;101681.87;;;3.91;85.00
60642;BME280;46837;52.446;-1.930;2023-01-26T00:44:09;101680.32;;;3.88;85.10
60642;BME280;46837;52.446;-1.930;2023-01-26T00:45:09;101680.48;;;3.88;85.20
60642;BME280;46837;52.446;-1.930;2023-01-26T00:46:09;101680.64;;;3.88;85.18
60642;BME280;46837;52.446;-1.930;2023-01-26T00:47:09;101684.93;;;3.88;85.29
60642;BME280;46837;52.446;-1.930;2023-01-26T00:48:09;101683.35;;;3.88;85.22
60642;BME280;46837;52.446;-1.930;2023-01-26T00:49:09;101681.53;;;3.88;85.23
60642;BME280;46837;52.446;-1.930;2023-01-26T00:50:09;101681.69;;;3.87;85.24
60642;BME280;46837;52.446;-1.930;2023-01-26T00:51:09;101678.07;;;3.85;85.38
60642;BME280;46837;52.446;-1.930;2023-01-26T00:52:09;101679.77;;;3.84;85.47
60642;BME280;46837;52.446;-1.930;2023-01-26T00:53:09;101675.75;;;3.85;85.58
60642;BME280;46837;52.446;-1.930;2023-01-26T00:54:09;101673.96;;;3.83;85.63
60642;BME280;46837;52.446;-1.930;2023-01-26T00:55:09;101670.88;;;3.82;85.84
60642;BME280;46837;52.446;-1.930;2023-01-26T00:56:09;101670.26;;;3.80;85.90
60642;BME280;46837;52.446;-1.930;2023-01-26T00:57:09;101666.68;;;3.79;85.93
60642;BME280;46837;52.446;-1.930;2023-01-26T00:58:10;101666.93;;;3.79;86.17
60642;BME280;46837;52.446;-1.930;2023-01-26T00:59:09;101675.23;;;3.78;86.21
60642;BME280;46837;52.446;-1.930;2023-01-26T01:00:09;101675.18;;;3.76;86.40
60642;BME280;46837;52.446;-1.930;2023-01-26T01:01:09;101670.28;;;3.77;86.38
60642;BME280;46837;52.446;-1.930;2023-01-26T01:02:09;101671.42;;;3.78;86.37
60642;BME280;46837;52.446;-1.930;2023-01-26T01:03:09;101667.09;;;3.79;86.35
60642;BME280;46837;52.446;-1.930;2023-01-26T01:04:09;101667.74;;;3.79;86.31
60642;BME280;46837;52.446;-1.930;2023-01-26T01:05:11;101667.64;;;3.76;86.40
60642;BME280;46837;52.446;-1.930;2023-01-26T01:06:09;101668.81;;;3.76;86.52
60642;BME280;46837;52.446;-1.930;2023-01-26T01:07:09;101668.12;;;3.75;86.65
60642;BME280;46837;52.446;-1.930;2023-01-26T01:08:09;101665.93;;;3.76;86.69
60642;BME280;46837;52.446;-1.930;2023-01-26T01:09:09;101666.96;;;3.77;86.70
60642;BME280;46837;52.446;-1.930;2023-01-26T01:10:09;101663.79;;;3.77;86.47
60642;BME280;46837;52.446;-1.930;2023-01-26T01:11:10;101666.33;;;3.74;86.58
60642;BME280;46837;52.446;-1.930;2023-01-26T01:12:09;101668.11;;;3.71;86.82
60642;BME280;46837;52.446;-1.930;2023-01-26T01:13:09;101673.46;;;3.73;86.90
60642;BME280;46837;52.446;-1.930;2023-01-26T01:14:09;101671.11;;;3.73;86.88
60642;BME280;46837;52.446;-1.930;2023-01-26T01:15:09;101673.17;;;3.73;86.87
60642;BME280;46837;52.446;-1.930;2023-01-26T01:16:10;101671.91;;;3.72;86.89
60642;BME280;46837;52.446;-1.930;2023-01-26T01:17:09;101672.40;;;3.71;87.05
60642;BME280;46837;52.446;-1.930;2023-01-26T01:18:09;101670.70;;;3.71;87.04
60642;BME280;46837;52.446;-1.930;2023-01-26T01:19:12;101673.09;;;3.72;86.98
60642;BME280;46837;52.446;-1.930;2023-01-26T01:20:09;101676.58;;;3.71;86.99
60642;BME280;46837;52.446;-1.930;2023-01-26T01:21:09;101676.61;;;3.71;87.11
60642;BME280;46837;52.446;-1.930;2023-01-26T01:22:09;101679.53;;;3.71;87.15
60642;BME280;46837;52.446;-1.930;2023-01-26T01:23:09;101676.93;;;3.70;87.13
60642;BME280;46837;52.446;-1.930;2023-01-26T01:24:09;101677.36;;;3.67;87.27
60642;BME280;46837;52.446;-1.930;2023-01-26T01:25:09;101681.53;;;3.65;87.56
60642;BME280;46837;52.446;-1.930;2023-01-26T01:26:09;101681.77;;;3.66;87.65
60642;BME280;46837;52.446;-1.930;2023-01-26T01:27:09;101681.70;;;3.66;87.56
60642;BME280;46837;52.446;-1.930;2023-01-26T01:28:09;101680.44;;;3.67;87.53
60642;BME280;46837;52.446;-1.930;2023-01-26T01:29:11;101688.19;;;3.67;87.43
60642;BME280;46837;52.446;-1.930;2023-01-26T01:30:09;101690.09;;;3.67;87.39
60642;BME280;46837;52.446;-1.930;2023-01-26T01:31:10;101683.81;;;3.67;87.40
60642;BME280;46837;52.446;-1.930;2023-01-26T01:32:09;101691.56;;;3.68;87.38
60642;BME280;46837;52.446;-1.930;2023-01-26T01:33:09;101692.00;;;3.68;87.29
60642;BME280;46837;52.446;-1.930;2023-01-26T01:34:09;101693.42;;;3.67;87.38
60642;BME280;46837;52.446;-1.930;2023-01-26T01:35:09;101692.72;;;3.66;87.36
60642;BME280;46837;52.446;-1.930;2023-01-26T01:36:11;101693.08;;;3.66;87.52
60642;BME280;46837;52.446;-1.930;2023-01-26T01:37:09;101693.53;;;3.65;87.50
60642;BME280;46837;52.446;-1.930;2023-01-26T01:38:09;101692.71;;;3.65;87.44
60642;BME280;46837;52.446;-1.930;2023-01-26T01:39:09;101688.86;;;3.64;87.44
60642;BME280;46837;52.446;-1.930;2023-01-26T01:40:11;101688.27;;;3.61;87.51
60642;BME280;46837;52.446;-1.930;2023-01-26T01:41:09;101689.61;;;3.61;87.65
60642;BME280;46837;52.446;-1.930;2023-01-26T01:42:09;101687.34;;;3.62;87.65
60642;BME280;46837;52.446;-1.930;2023-01-26T01:43:11;101691.75;;;3.60;87.57
60642;BME280;46837;52.446;-1.930;2023-01-26T01:45:27;101692.25;;;3.62;87.84
60642;BME280;46837;52.446;-1.930;2023-01-26T01:47:18;101692.88;;;3.58;87.87
60642;BME280;46837;52.446;-1.930;2023-01-26T01:49:17;101696.97;;;3.59;87.94
60642;BME280;46837;52.446;-1.930;2023-01-26T01:50:14;101693.73;;;3.59;87.78
60642;BME280;46837;52.446;-1.930;2023-01-26T01:51:12;101690.64;;;3.58;87.77
60642;BME280;46837;52.446;-1.930;2023-01-26T01:52:14;101690.92;;;3.57;87.80
60642;BME280;46837;52.446;-1.930;2023-01-26T01:53:12;101692.09;;;3.57;87.84
60642;BME280;46837;52.446;-1.930;2023-01-26T01:54:10;101695.61;;;3.55;87.99
60642;BME280;46837;52.446;-1.930;2023-01-26T01:55:09;101697.59;;;3.53;88.09
60642;BME280;46837;52.446;-1.930;2023-01-26T01:56:12;101694.88;;;3.54;88.11
60642;BME280;46837;52.446;-1.930;2023-01-26T01:57:13;101696.38;;;3.54;88.10
60642;BME280;46837;52.446;-1.930;2023-01-26T01:58:09;101689.67;;;3.51;88.07
60642;BME280;46837;52.446;-1.930;2023-01-26T01:59:09;101694.67;;;3.53;88.23
60642;BME280;46837;52.446;-1.930;2023-01-26T02:00:10;101694.23;;;3.50;88.08
60642;BME280;46837;52.446;-1.930;2023-01-26T02:01:09;101695.35;;;3.52;88.29
60642;BME280;46837;52.446;-1.930;2023-01-26T02:02:09;101696.84;;;3.52;88.10
60642;BME280;46837;52.446;-1.930;2023-01-26T02:03:13;101694.98;;;3.51;88.03
60642;BME280;46837;52.446;-1.930;2023-01-26T02:04:09;101701.73;;;3.48;88.07
60642;BME280;46837;52.446;-1.930;2023-01-26T02:05:21;101695.97;;;3.49;88.18
60642;BME280;46837;52.446;-1.930;2023-01-26T02:06:15;101697.47;;;3.49;88.14
60642;BME280;46837;52.446;-1.930;2023-01-26T02:07:09;101696.04;;;3.46;88.13
60642;BME280;46837;52.446;-1.930;2023-01-26T02:08:09;101698.56;;;3.42;88.34
60642;BME280;46837;52.446;-1.930;2023-01-26T02:09:09;101699.34;;;3.43;88.58
60642;BME280;46837;52.446;-1.930;2023-01-26T02:10:15;101705.30;;;3.45;88.45
60642;BME280;46837;52.446;-1.930;2023-01-26T02:11:16;101711.48;;;3.46;88.27
60642;BME280;46837;52.446;-1.930;2023-01-26T02:12:11;101706.74;;;3.46;88.16
60642;BME280;46837;52.446;-1.930;2023-01-26T02:13:09;101704.75;;;3.45;88.02
60642;BME280;46837;52.446;-1.930;2023-01-26T02:14:09;101705.73;;;3.47;88.08
60642;BME280;46837;52.446;-1.930;2023-01-26T02:15:09;101712.69;;;3.45;88.06
60642;BME280;46837;52.446;-1.930;2023-01-26T02:16:09;101712.95;;;3.47;88.13
60642;BME280;46837;52.446;-1.930;2023-01-26T02:17:09;101712.48;;;3.44;88.09
60642;BME280;46837;52.446;-1.930;2023-01-26T02:18:09;101709.48;;;3.45;88.13
60642;BME280;46837;52.446;-1.930;2023-01-26T02:19:13;101706.04;;;3.45;88.19
60642;BME280;46837;52.446;-1.930;2023-01-26T02:20:19;101708.23;;;3.46;88.14
60642;BME280;46837;52.446;-1.930;2023-01-26T02:21:09;101707.99;;;3.45;88.13
60642;BME280;46837;52.446;-1.930;2023-01-26T02:22:25;101708.23;;;3.45;88.05
60642;BME280;46837;52.446;-1.930;2023-01-26T02:24:16;101705.38;;;3.44;87.83
60642;BME280;46837;52.446;-1.930;2023-01-26T02:26:13;101706.87;;;3.42;87.96
60642;BME280;46837;52.446;-1.930;2023-01-26T02:27:09;101714.17;;;3.43;87.93
60642;BME280;46837;52.446;-1.930;2023-01-26T02:28:09;101719.49;;;3.44;87.85
60642;BME280;46837;52.446;-1.930;2023-01-26T02:29:10;101715.41;;;3.40;87.78
60642;BME280;46837;52.446;-1.930;2023-01-26T02:30:09;101716.10;;;3.41;87.84
60642;BME280;46837;52.446;-1.930;2023-01-26T02:31:09;101716.31;;;3.41;87.83
60642;BME280;46837;52.446;-1.930;2023-01-26T02:32:09;101715.45;;;3.40;87.81
60642;BME280;46837;52.446;-1.930;2023-01-26T02:34:09;101718.12;;;3.40;87.76
60642;BME280;46837;52.446;-1.930;2023-01-26T02:35:09;101717.80;;;3.40;87.74
60642;BME280;46837;52.446;-1.930;2023-01-26T02:36:19;101720.44;;;3.41;87.71
60642;BME280;46837;52.446;-1.930;2023-01-26T02:37:13;101719.95;;;3.41;87.68
60642;BME280;46837;52.446;-1.930;2023-01-26T02:38:09;101716.33;;;3.39;87.64
60642;BME280;46837;52.446;-1.930;2023-01-26T02:41:10;101709.96;;;3.38;87.65
60642;BME280;46837;52.446;-1.930;2023-01-26T02:42:13;101716.27;;;3.36;87.66
60642;BME280;46837;52.446;-1.930;2023-01-26T02:43:09;101717.94;;;3.37;87.81
60642;BME280;46837;52.446;-1.930;2023-01-26T02:44:09;101718.46;;;3.36;87.79
60642;BME280;46837;52.446;-1.930;2023-01-26T02:45:13;101723.94;;;3.38;87.77
60642;BME280;46837;52.446;-1.930;2023-01-26T02:46:09;101720.00;;;3.36;87.66
60642;BME280;46837;52.446;-1.930;2023-01-26T02:47:15;101716.01;;;3.34;87.74
60642;BME280;46837;52.446;-1.930;2023-01-26T02:48:09;101720.18;;;3.33;87.86
60642;BME280;46837;52.446;-1.930;2023-01-26T02:49:13;101719.37;;;3.33;87.83
60642;BME280;46837;52.446;-1.930;2023-01-26T02:50:09;101718.29;;;3.31;87.74
60642;BME280;46837;52.446;-1.930;2023-01-26T02:51:09;101715.85;;;3.29;87.81
60642;BME280;46837;52.446;-1.930;2023-01-26T02:52:09;101723.40;;;3.27;87.85
60642;BME280;46837;52.446;-1.930;2023-01-26T02:53:09;101716.13;;;3.24;88.02
60642;BME280;46837;52.446;-1.930;2023-01-26T02:54:09;101722.17;;;3.24;88.03
60642;BME280;46837;52.446;-1.930;2023-01-26T02:55:13;101715.00;;;3.19;87.94
60642;BME280;46837;52.446;-1.930;2023-01-26T02:56:09;101720.10;;;3.19;88.25
60642;BME280;46837;52.446;-1.930;2023-01-26T02:57:09;101723.60;;;3.20;88.30
60642;BME280;46837;52.446;-1.930;2023-01-26T02:58:09;101723.60;;;3.20;88.23
60642;BME280;46837;52.446;-1.930;2023-01-26T02:59:09;101726.41;;;3.22;88.24
60642;BME280;46837;52.446;-1.930;2023-01-26T03:00:18;101724.43;;;3.22;88.04
60642;BME280;46837;52.446;-1.930;2023-01-26T03:01:09;101726.33;;;3.23;87.99
60642;BME280;46837;52.446;-1.930;2023-01-26T03:02:09;101721.43;;;3.23;87.85
60642;BME280;46837;52.446;-1.930;2023-01-26T03:03:14;101725.46;;;3.20;87.79
60642;BME280;46837;52.446;-1.930;2023-01-26T03:04:09;101724.00;;;3.20;87.92
60642;BME280;46837;52.446;-1.930;2023-01-26T03:05:09;101728.21;;;3.20;87.87
60642;BME280;46837;52.446;-1.930;2023-01-26T03:06:11;101731.20;;;3.19;87.80
60642;BME280;46837;52.446;-1.930;2023-01-26T03:07:09;101724.72;;;3.19;87.83
60642;BME280;46837;52.446;-1.930;2023-01-26T03:08:09;101732.86;;;3.18;87.81
60642;BME280;46837;52.446;-1.930;2023-01-26T03:09:09;101732.16;;;3.17;87.79
60642;BME280;46837;52.446;-1.930;2023-01-26T03:10:09;101732.76;;;3.16;87.74
60642;BME280;46837;52.446;-1.930;2023-01-26T03:11:09;101734.27;;;3.17;87.85
60642;BME280;46837;52.446;-1.930;2023-01-26T03:12:09;101736.34;;;3.18;87.74
60642;BME280;46837;52.446;-1.930;2023-01-26T03:13:09;101736.30;;;3.19;87.65
60642;BME280;46837;52.446;-1.930;2023-01-26T03:14:11;101729.30;;;3.19;87.62
60642;BME280;46837;52.446;-1.930;2023-01-26T03:15:13;101732.34;;;3.19;87.65
60642;BME280;46837;52.446;-1.930;2023-01-26T03:16:09;101734.89;;;3.18;87.52
60642;BME280;46837;52.446;-1.930;2023-01-26T03:17:09;101737.56;;;3.19;87.49
60642;BME280;46837;52.446;-1.930;2023-01-26T03:18:14;101735.93;;;3.18;87.37
60642;BME280;46837;52.446;-1.930;2023-01-26T03:19:13;101738.07;;;3.17;87.37
60642;BME280;46837;52.446;-1.930;2023-01-26T03:20:13;101739.24;;;3.16;87.43
60642;BME280;46837;52.446;-1.930;2023-01-26T03:21:14;101739.20;;;3.17;87.46
60642;BME280;46837;52.446;-1.930;2023-01-26T03:22:13;101740.09;;;3.16;87.48
60642;BME280;46837;52.446;-1.930;2023-01-26T03:23:13;101738.04;;;3.13;87.40
60642;BME280;46837;52.446;-1.930;2023-01-26T03:24:13;101738.10;;;3.15;87.53
60642;BME280;46837;52.446;-1.930;2023-01-26T03:25:13;101729.85;;;3.13;87.39
60642;BME280;46837;52.446;-1.930;2023-01-26T03:26:13;101728.88;;;3.13;87.41
60642;BME280;46837;52.446;-1.930;2023-01-26T03:27:13;101733.45;;;3.12;87.41
60642;BME280;46837;52.446;-1.930;2023-01-26T03:28:09;101732.80;;;3.11;87.37
60642;BME280;46837;52.446;-1.930;2023-01-26T03:29:09;101733.72;;;3.10;87.37
60642;BME280;46837;52.446;-1.930;2023-01-26T03:30:09;101729.12;;;3.08;87.31
60642;BME280;46837;52.446;-1.930;2023-01-26T03:31:09;101733.79;;;3.09;87.42
60642;BME280;46837;52.446;-1.930;2023-01-26T03:32:09;101733.75;;;3.09;87.46
60642;BME280;46837;52.446;-1.930;2023-01-26T03:33:09;101733.65;;;3.07;87.37
60642;BME280;46837;52.446;-1.930;2023-01-26T03:34:09;101729.77;;;3.08;87.47
60642;BME280;46837;52.446;-1.930;2023-01-26T03:35:09;101729.82;;;3.05;87.34
60642;BME280;46837;52.446;-1.930;2023-01-26T03:36:09;101732.05;;;3.05;87.47
60642;BME280;46837;52.446;-1.930;2023-01-26T03:37:09;101732.54;;;3.05;87.52
60642;BME280;46837;52.446;-1.930;2023-01-26T03:38:09;101736.16;;;3.07;87.54
60642;BME280;46837;52.446;-1.930;2023-01-26T03:39:09;101739.07;;;3.07;87.33
60642;BME280;46837;52.446;-1.930;2023-01-26T03:40:13;101739.01;;;3.08;87.32
60642;BME280;46837;52.446;-1.930;2023-01-26T03:41:13;101733.04;;;3.07;87.13
60642;BME280;46837;52.446;-1.930;2023-01-26T03:42:13;101737.30;;;3.08;87.17
60642;BME280;46837;52.446;-1.930;2023-01-26T03:43:13;101732.18;;;3.05;87.05
60642;BME280;46837;52.446;-1.930;2023-01-26T03:44:13;101730.50;;;3.03;87.06
60642;BME280;46837;52.446;-1.930;2023-01-26T03:45:13;101731.93;;;3.01;87.07
60642;BME280;46837;52.446;-1.930;2023-01-26T03:46:13;101732.45;;;3.00;87.19
60642;BME280;46837;52.446;-1.930;2023-01-26T03:47:13;101729.72;;;2.98;87.14
60642;BME280;46837;52.446;-1.930;2023-01-26T03:48:13;101732.99;;;2.97;87.21
60642;BME280;46837;52.446;-1.930;2023-01-26T03:49:13;101733.41;;;2.95;87.27
60642;BME280;46837;52.446;-1.930;2023-01-26T03:50:13;101735.08;;;2.96;87.31
60642;BME280;46837;52.446;-1.930;2023-01-26T03:51:13;101743.88;;;2.97;87.30
60642;BME280;46837;52.446;-1.930;2023-01-26T03:52:13;101743.36;;;2.97;87.29
60642;BME280;46837;52.446;-1.930;2023-01-26T03:53:13;101745.79;;;2.97;87.22
60642;BME280;46837;52.446;-1.930;2023-01-26T03:54:13;101746.99;;;3.00;87.26
60642;BME280;46837;52.446;-1.930;2023-01-26T03:55:13;101748.89;;;3.00;87.06
60642;BME280;46837;52.446;-1.930;2023-01-26T03:56:13;101753.82;;;2.95;86.75
60642;BME280;46837;52.446;-1.930;2023-01-26T03:57:09;101756.71;;;2.96;87.01
60642;BME280;46837;52.446;-1.930;2023-01-26T03:58:09;101757.10;;;2.95;86.98
60642;BME280;46837;52.446;-1.930;2023-01-26T03:59:10;101750.47;;;2.96;87.12
60642;BME280;46837;52.446;-1.930;2023-01-26T04:00:09;101750.48;;;2.97;87.07
60642;BME280;46837;52.446;-1.930;2023-01-26T04:01:09;101746.08;;;2.98;87.04
60642;BME280;46837;52.446;-1.930;2023-01-26T04:02:13;101744.98;;;2.97;86.95
60642;BME280;46837;52.446;-1.930;2023-01-26T04:03:13;101738.17;;;2.97;86.97
60642;BME280;46837;52.446;-1.930;2023-01-26T04:04:13;101736.14;;;2.96;86.85
60642;BME280;46837;52.446;-1.930;2023-01-26T04:05:13;101738.05;;;2.93;86.83
60642;BME280;46837;52.446;-1.930;2023-01-26T04:06:13;101734.59;;;2.91;86.90
60642;BME280;46837;52.446;-1.930;2023-01-26T04:07:13;101732.03;;;2.90;86.93
60642;BME280;46837;52.446;-1.930;2023-01-26T04:08:13;101732.96;;;2.90;86.99
60642;BME280;46837;52.446;-1.930;2023-01-26T04:09:09;101733.42;;;2.88;86.93
60642;BME280;46837;52.446;-1.930;2023-01-26T04:10:09;101735.46;;;2.90;87.02
60642;BME280;46837;52.446;-1.930;2023-01-26T04:11:09;101731.23;;;2.91;86.96
60642;BME280;46837;52.446;-1.930;2023-01-26T04:12:09;101736.44;;;2.90;86.84
60642;BME280;46837;52.446;-1.930;2023-01-26T04:13:13;101742.08;;;2.91;86.97
60642;BME280;46837;52.446;-1.930;2023-01-26T04:14:13;101743.20;;;2.85;86.86
60642;BME280;46837;52.446;-1.930;2023-01-26T04:15:13;101747.52;;;2.84;87.08
60642;BME280;46837;52.446;-1.930;2023-01-26T04:16:13;101753.63;;;2.83;87.09
60642;BME280;46837;52.446;-1.930;2023-01-26T04:17:13;101754.75;;;2.79;87.09
60642;BME280;46837;52.446;-1.930;2023-01-26T04:18:13;101754.08;;;2.77;87.18
60642;BME280;46837;52.446;-1.930;2023-01-26T04:19:13;101753.50;;;2.75;87.19
60642;BME280;46837;52.446;-1.930;2023-01-26T04:20:13;101751.80;;;2.75;87.30
60642;BME280;46837;52.446;-1.930;2023-01-26T04:21:13;101752.07;;;2.71;87.15
60642;BME280;46837;52.446;-1.930;2023-01-26T04:22:09;101760.21;;;2.71;87.38
60642;BME280;46837;52.446;-1.930;2023-01-26T04:23:16;101767.40;;;2.69;87.31
60642;BME280;46837;52.446;-1.930;2023-01-26T04:24:13;101770.01;;;2.68;87.34
60642;BME280;46837;52.446;-1.930;2023-01-26T04:25:12;101771.42;;;2.67;87.31
60642;BME280;46837;52.446;-1.930;2023-01-26T04:26:09;101779.18;;;2.69;87.33
60642;BME280;46837;52.446;-1.930;2023-01-26T04:27:09;101774.20;;;2.69;87.16
60642;BME280;46837;52.446;-1.930;2023-01-26T04:28:09;101773.03;;;2.69;87.19
60642;BME280;46837;52.446;-1.930;2023-01-26T04:29:10;101771.11;;;2.68;87.05
60642;BME280;46837;52.446;-1.930;2023-01-26T04:30:10;101768.42;;;2.66;87.02
60642;BME280;46837;52.446;-1.930;2023-01-26T04:31:09;101771.06;;;2.64;87.07
60642;BME280;46837;52.446;-1.930;2023-01-26T04:32:10;101766.04;;;2.60;87.21
60642;BME280;46837;52.446;-1.930;2023-01-26T04:33:09;101774.86;;;2.59;87.21
60642;BME280;46837;52.446;-1.930;2023-01-26T04:34:14;101773.31;;;2.59;87.28
60642;BME280;46837;52.446;-1.930;2023-01-26T04:35:09;101775.13;;;2.59;87.28
60642;BME280;46837;52.446;-1.930;2023-01-26T04:36:09;101772.41;;;2.58;87.30
60642;BME280;46837;52.446;-1.930;2023-01-26T04:37:09;101776.82;;;2.58;87.33
60642;BME280;46837;52.446;-1.930;2023-01-26T04:38:09;101774.76;;;2.58;87.32
60642;BME280;46837;52.446;-1.930;2023-01-26T04:39:09;101771.89;;;2.59;87.34
60642;BME280;46837;52.446;-1.930;2023-01-26T04:40:09;101770.92;;;2.59;87.28
60642;BME280;46837;52.446;-1.930;2023-01-26T04:41:09;101772.53;;;2.58;87.28
60642;BME280;46837;52.446;-1.930;2023-01-26T04:42:09;101773.55;;;2.55;87.27
60642;BME280;46837;52.446;-1.930;2023-01-26T04:43:09;101777.34;;;2.54;87.36
60642;BME280;46837;52.446;-1.930;2023-01-26T04:44:09;101778.15;;;2.51;87.39
60642;BME280;46837;52.446;-1.930;2023-01-26T04:45:09;101779.76;;;2.50;87.60
60642;BME280;46837;52.446;-1.930;2023-01-26T04:46:09;101781.70;;;2.50;87.63
60642;BME280;46837;52.446;-1.930;2023-01-26T04:47:09;101779.78;;;2.48;87.58
60642;BME280;46837;52.446;-1.930;2023-01-26T04:48:09;101777.73;;;2.47;87.57
60642;BME280;46837;52.446;-1.930;2023-01-26T04:49:09;101779.74;;;2.45;87.57
60642;BME280;46837;52.446;-1.930;2023-01-26T04:50:09;101780.34;;;2.42;87.61
60642;BME280;46837;52.446;-1.930;2023-01-26T04:51:12;101781.97;;;2.39;87.69
60642;BME280;46837;52.446;-1.930;2023-01-26T04:52:09;101776.14;;;2.36;87.80
60642;BME280;46837;52.446;-1.930;2023-01-26T04:53:09;101777.30;;;2.34;87.97
60642;BME280;46837;52.446;-1.930;2023-01-26T04:54:09;101776.89;;;2.34;88.00
60642;BME280;46837;52.446;-1.930;2023-01-26T04:55:09;101776.37;;;2.28;88.05
60642;BME280;46837;52.446;-1.930;2023-01-26T04:56:13;101775.95;;;2.27;88.36
60642;BME280;46837;52.446;-1.930;2023-01-26T04:57:09;101779.98;;;2.29;88.42
60642;BME280;46837;52.446;-1.930;2023-01-26T04:58:09;101776.80;;;2.25;88.35
60642;BME280;46837;52.446;-1.930;2023-01-26T04:59:09;101781.27;;;2.23;88.45
60642;BME280;46837;52.446;-1.930;2023-01-26T05:00:09;101774.90;;;2.21;88.56
60642;BME280;46837;52.446;-1.930;2023-01-26T05:01:09;101777.82;;;2.18;88.75
60642;BME280;46837;52.446;-1.930;2023-01-26T05:02:09;101773.89;;;2.21;88.78
60642;BME280;46837;52.446;-1.930;2023-01-26T05:03:09;101770.00;;;2.21;88.59
60642;BME280;46837;52.446;-1.930;2023-01-26T05:04:09;101770.78;;;2.21;88.59
60642;BME280;46837;52.446;-1.930;2023-01-26T05:05:09;101768.29;;;2.19;88.52
60642;BME280;46837;52.446;-1.930;2023-01-26T05:06:09;101766.40;;;2.18;88.54
60642;BME280;46837;52.446;-1.930;2023-01-26T05:07:09;101765.41;;;2.17;88.69
60642;BME280;46837;52.446;-1.930;2023-01-26T05:08:09;101762.41;;;2.12;88.78
60642;BME280;46837;52.446;-1.930;2023-01-26T05:09:09;101765.87;;;2.14;89.00
60642;BME280;46837;52.446;-1.930;2023-01-26T05:10:09;101765.61;;;2.16;88.95
60642;BME280;46837;52.446;-1.930;2023-01-26T05:11:09;101764.70;;;2.15;88.87
60642;BME280;46837;52.446;-1.930;2023-01-26T05:12:13;101765.78;;;2.16;88.95
60642;BME280;46837;52.446;-1.930;2023-01-26T05:13:09;101767.43;;;2.16;88.86
60642;BME280;46837;52.446;-1.930;2023-01-26T05:14:09;101762.81;;;2.15;88.79
60642;BME280;46837;52.446;-1.930;2023-01-26T05:15:09;101763.75;;;2.16;88.79
60642;BME280;46837;52.446;-1.930;2023-01-26T05:16:09;101764.37;;;2.17;88.83
60642;BME280;46837;52.446;-1.930;2023-01-26T05:17:09;101763.34;;;2.19;88.75
60642;BME280;46837;52.446;-1.930;2023-01-26T05:18:09;101764.62;;;2.18;88.64
60642;BME280;46837;52.446;-1.930;2023-01-26T05:19:09;101762.25;;;2.16;88.60
60642;BME280;46837;52.446;-1.930;2023-01-26T05:20:09;101760.78;;;2.17;88.71
60642;BME280;46837;52.446;-1.930;2023-01-26T05:21:09;101761.59;;;2.17;88.59
60642;BME280;46837;52.446;-1.930;2023-01-26T05:22:09;101763.77;;;2.18;88.62
60642;BME280;46837;52.446;-1.930;2023-01-26T05:23:09;101767.59;;;2.19;88.58